Gables, Florida
Current Conditions -  °F | °C
As of 11:38 AM on Friday 21 Nov 2014 (Local Time) from KMIA Reporting Station
Light Rain Light Rain  
Wind Chill: 71°   Ceiling: 1200
Heat Index: 71°   Visibility: 4mi
Dew Point: 69°   Wind: 13mph
Humidity: 93%   Direction: 50°NE
Pressure: 30.17"   Gusts: NA
Location:  25.7478°N, 80.2598°W
Report Text: KMIA 211638Z 05011KT 4SM -RA BR FEW006 BKN012 OVC022 22/21 A3017 RMK AO2 P0001 T02170206
Loading
Personal Weather Stations






























Interactive Weather Map New forecast layout! Learn more

10-Day Weather Forecast

Advertisements
Track Severe Weather on mobile